sensor_id;sensor_type;location;lat;lon;timestamp;P1;durP1;ratioP1;P2;durP2;ratioP2
6517;SDS011;3292;48.944;9.240;2022-08-03T00:00:53;4.63;;;2.90;;
6517;SDS011;3292;48.944;9.240;2022-08-03T00:03:20;3.60;;;2.80;;
6517;SDS011;3292;48.944;9.240;2022-08-03T00:05:46;3.00;;;2.70;;
6517;SDS011;3292;48.944;9.240;2022-08-03T00:08:13;5.00;;;3.07;;
6517;SDS011;3292;48.944;9.240;2022-08-03T00:10:40;3.77;;;2.97;;
6517;SDS011;3292;48.944;9.240;2022-08-03T00:13:07;3.77;;;2.80;;
6517;SDS011;3292;48.944;9.240;2022-08-03T00:15:36;3.67;;;2.73;;
6517;SDS011;3292;48.944;9.240;2022-08-03T00:18:05;4.43;;;2.70;;
6517;SDS011;3292;48.944;9.240;2022-08-03T00:20:32;3.87;;;3.00;;
6517;SDS011;3292;48.944;9.240;2022-08-03T00:23:00;3.57;;;3.13;;
6517;SDS011;3292;48.944;9.240;2022-08-03T00:25:27;3.97;;;3.00;;
6517;SDS011;3292;48.944;9.240;2022-08-03T00:27:53;5.13;;;3.10;;
6517;SDS011;3292;48.944;9.240;2022-08-03T00:30:20;4.20;;;2.90;;
6517;SDS011;3292;48.944;9.240;2022-08-03T00:32:47;6.40;;;2.90;;
6517;SDS011;3292;48.944;9.240;2022-08-03T00:35:15;5.37;;;2.77;;
6517;SDS011;3292;48.944;9.240;2022-08-03T00:37:42;3.17;;;2.87;;
6517;SDS011;3292;48.944;9.240;2022-08-03T00:40:10;3.07;;;2.80;;
6517;SDS011;3292;48.944;9.240;2022-08-03T00:42:45;3.53;;;2.90;;
6517;SDS011;3292;48.944;9.240;2022-08-03T00:45:12;4.07;;;3.00;;
6517;SDS011;3292;48.944;9.240;2022-08-03T00:47:39;4.73;;;3.40;;
6517;SDS011;3292;48.944;9.240;2022-08-03T00:50:06;4.37;;;2.83;;
6517;SDS011;3292;48.944;9.240;2022-08-03T00:52:35;5.03;;;3.13;;
6517;SDS011;3292;48.944;9.240;2022-08-03T00:55:02;3.13;;;2.90;;
6517;SDS011;3292;48.944;9.240;2022-08-03T00:57:29;3.00;;;2.80;;
6517;SDS011;3292;48.944;9.240;2022-08-03T00:59:58;3.30;;;3.00;;
6517;SDS011;3292;48.944;9.240;2022-08-03T01:02:25;3.77;;;3.07;;
6517;SDS011;3292;48.944;9.240;2022-08-03T01:04:52;3.53;;;2.90;;
6517;SDS011;3292;48.944;9.240;2022-08-03T01:07:20;4.13;;;3.10;;
6517;SDS011;3292;48.944;9.240;2022-08-03T01:09:59;4.07;;;2.90;;
6517;SDS011;3292;48.944;9.240;2022-08-03T01:12:36;4.23;;;3.67;;
6517;SDS011;3292;48.944;9.240;2022-08-03T01:15:09;4.33;;;3.37;;
6517;SDS011;3292;48.944;9.240;2022-08-03T01:17:47;3.43;;;3.13;;
6517;SDS011;3292;48.944;9.240;2022-08-03T01:20:20;3.73;;;3.20;;
6517;SDS011;3292;48.944;9.240;2022-08-03T01:25:58;4.00;;;3.40;;
6517;SDS011;3292;48.944;9.240;2022-08-03T01:28:37;3.10;;;2.90;;
6517;SDS011;3292;48.944;9.240;2022-08-03T01:31:17;3.53;;;3.17;;
6517;SDS011;3292;48.944;9.240;2022-08-03T01:33:50;3.40;;;3.10;;
6517;SDS011;3292;48.944;9.240;2022-08-03T01:36:23;3.67;;;3.37;;
6517;SDS011;3292;48.944;9.240;2022-08-03T01:38:54;6.43;;;3.50;;
6517;SDS011;3292;48.944;9.240;2022-08-03T01:41:25;4.77;;;3.20;;
6517;SDS011;3292;48.944;9.240;2022-08-03T01:43:56;3.33;;;2.80;;
6517;SDS011;3292;48.944;9.240;2022-08-03T01:46:50;3.83;;;3.07;;
6517;SDS011;3292;48.944;9.240;2022-08-03T01:49:29;3.53;;;3.20;;
6517;SDS011;3292;48.944;9.240;2022-08-03T01:52:06;3.30;;;3.00;;
6517;SDS011;3292;48.944;9.240;2022-08-03T01:54:36;3.37;;;3.10;;
6517;SDS011;3292;48.944;9.240;2022-08-03T01:57:07;4.60;;;3.03;;
6517;SDS011;3292;48.944;9.240;2022-08-03T01:59:35;3.93;;;3.30;;
6517;SDS011;3292;48.944;9.240;2022-08-03T02:02:05;5.03;;;3.50;;
6517;SDS011;3292;48.944;9.240;2022-08-03T02:04:33;3.83;;;3.00;;
6517;SDS011;3292;48.944;9.240;2022-08-03T02:07:03;3.63;;;3.33;;
6517;SDS011;3292;48.944;9.240;2022-08-03T02:09:32;4.70;;;3.40;;
6517;SDS011;3292;48.944;9.240;2022-08-03T02:12:02;4.27;;;3.57;;
6517;SDS011;3292;48.944;9.240;2022-08-03T02:14:32;4.87;;;3.47;;
6517;SDS011;3292;48.944;9.240;2022-08-03T02:17:00;3.97;;;3.37;;
6517;SDS011;3292;48.944;9.240;2022-08-03T02:19:29;3.67;;;3.37;;
6517;SDS011;3292;48.944;9.240;2022-08-03T02:21:57;3.70;;;3.40;;
6517;SDS011;3292;48.944;9.240;2022-08-03T02:24:25;3.53;;;3.23;;
6517;SDS011;3292;48.944;9.240;2022-08-03T02:26:52;4.70;;;3.70;;
6517;SDS011;3292;48.944;9.240;2022-08-03T02:29:27;4.07;;;3.50;;
6517;SDS011;3292;48.944;9.240;2022-08-03T02:31:58;4.13;;;3.30;;
6517;SDS011;3292;48.944;9.240;2022-08-03T02:34:30;3.40;;;3.20;;
6517;SDS011;3292;48.944;9.240;2022-08-03T02:37:00;4.00;;;3.17;;
6517;SDS011;3292;48.944;9.240;2022-08-03T02:39:30;3.50;;;3.20;;
6517;SDS011;3292;48.944;9.240;2022-08-03T02:42:00;5.53;;;3.63;;
6517;SDS011;3292;48.944;9.240;2022-08-03T02:44:28;4.70;;;3.37;;
6517;SDS011;3292;48.944;9.240;2022-08-03T02:46:58;4.60;;;3.60;;
6517;SDS011;3292;48.944;9.240;2022-08-03T02:49:27;3.30;;;3.00;;
6517;SDS011;3292;48.944;9.240;2022-08-03T02:51:56;3.37;;;3.07;;
6517;SDS011;3292;48.944;9.240;2022-08-03T02:54:25;4.20;;;3.43;;
6517;SDS011;3292;48.944;9.240;2022-08-03T02:56:53;4.00;;;3.60;;
6517;SDS011;3292;48.944;9.240;2022-08-03T02:59:21;3.60;;;3.30;;
6517;SDS011;3292;48.944;9.240;2022-08-03T03:01:49;3.93;;;3.63;;
6517;SDS011;3292;48.944;9.240;2022-08-03T03:04:18;5.77;;;3.80;;
6517;SDS011;3292;48.944;9.240;2022-08-03T03:06:47;4.07;;;3.67;;
6517;SDS011;3292;48.944;9.240;2022-08-03T03:09:15;6.00;;;3.67;;
6517;SDS011;3292;48.944;9.240;2022-08-03T03:11:43;4.03;;;3.73;;
6517;SDS011;3292;48.944;9.240;2022-08-03T03:14:11;4.07;;;3.30;;
6517;SDS011;3292;48.944;9.240;2022-08-03T03:16:38;4.13;;;3.73;;
6517;SDS011;3292;48.944;9.240;2022-08-03T03:19:07;4.20;;;3.80;;
6517;SDS011;3292;48.944;9.240;2022-08-03T03:21:37;5.63;;;4.00;;
6517;SDS011;3292;48.944;9.240;2022-08-03T03:24:06;3.97;;;3.67;;
6517;SDS011;3292;48.944;9.240;2022-08-03T03:26:34;4.37;;;3.93;;
6517;SDS011;3292;48.944;9.240;2022-08-03T03:29:02;3.20;;;3.00;;
6517;SDS011;3292;48.944;9.240;2022-08-03T03:31:30;4.83;;;3.60;;
6517;SDS011;3292;48.944;9.240;2022-08-03T03:33:57;3.60;;;3.30;;
6517;SDS011;3292;48.944;9.240;2022-08-03T03:36:25;4.73;;;3.70;;
6517;SDS011;3292;48.944;9.240;2022-08-03T03:38:58;5.40;;;3.57;;
6517;SDS011;3292;48.944;9.240;2022-08-03T03:41:26;4.30;;;3.67;;
6517;SDS011;3292;48.944;9.240;2022-08-03T03:44:03;4.00;;;3.70;;
6517;SDS011;3292;48.944;9.240;2022-08-03T03:46:31;3.87;;;3.57;;
6517;SDS011;3292;48.944;9.240;2022-08-03T03:49:03;4.03;;;3.70;;
6517;SDS011;3292;48.944;9.240;2022-08-03T03:51:36;4.80;;;3.50;;
6517;SDS011;3292;48.944;9.240;2022-08-03T03:54:04;4.03;;;3.73;;
6517;SDS011;3292;48.944;9.240;2022-08-03T03:56:32;7.37;;;3.77;;
6517;SDS011;3292;48.944;9.240;2022-08-03T03:59:03;4.33;;;3.93;;
6517;SDS011;3292;48.944;9.240;2022-08-03T04:01:33;4.30;;;4.00;;
6517;SDS011;3292;48.944;9.240;2022-08-03T04:04:03;3.87;;;3.57;;
6517;SDS011;3292;48.944;9.240;2022-08-03T04:06:44;4.00;;;3.70;;
6517;SDS011;3292;48.944;9.240;2022-08-03T04:09:32;4.47;;;3.90;;
6517;SDS011;3292;48.944;9.240;2022-08-03T04:12:20;4.40;;;4.00;;
6517;SDS011;3292;48.944;9.240;2022-08-03T04:14:48;3.90;;;3.60;;
6517;SDS011;3292;48.944;9.240;2022-08-03T04:17:20;5.50;;;3.57;;
6517;SDS011;3292;48.944;9.240;2022-08-03T04:19:51;4.13;;;3.83;;
6517;SDS011;3292;48.944;9.240;2022-08-03T04:22:21;3.97;;;3.57;;
6517;SDS011;3292;48.944;9.240;2022-08-03T04:24:54;4.20;;;3.80;;
6517;SDS011;3292;48.944;9.240;2022-08-03T04:27:27;6.63;;;3.70;;
6517;SDS011;3292;48.944;9.240;2022-08-03T04:30:19;4.23;;;3.83;;
6517;SDS011;3292;48.944;9.240;2022-08-03T04:32:48;3.53;;;3.23;;
6517;SDS011;3292;48.944;9.240;2022-08-03T04:35:16;3.80;;;3.50;;
6517;SDS011;3292;48.944;9.240;2022-08-03T04:37:45;3.93;;;3.50;;
6517;SDS011;3292;48.944;9.240;2022-08-03T04:40:27;4.13;;;3.83;;
6517;SDS011;3292;48.944;9.240;2022-08-03T04:42:59;4.00;;;3.70;;
6517;SDS011;3292;48.944;9.240;2022-08-03T04:45:29;4.27;;;3.97;;
6517;SDS011;3292;48.944;9.240;2022-08-03T04:47:58;4.00;;;3.70;;
6517;SDS011;3292;48.944;9.240;2022-08-03T04:50:25;5.83;;;4.13;;
6517;SDS011;3292;48.944;9.240;2022-08-03T04:53:02;5.53;;;4.03;;
6517;SDS011;3292;48.944;9.240;2022-08-03T04:55:31;4.33;;;3.93;;
6517;SDS011;3292;48.944;9.240;2022-08-03T04:58:02;4.10;;;3.77;;
6517;SDS011;3292;48.944;9.240;2022-08-03T05:00:32;4.90;;;4.07;;
6517;SDS011;3292;48.944;9.240;2022-08-03T05:02:59;3.83;;;3.50;;
6517;SDS011;3292;48.944;9.240;2022-08-03T05:05:27;5.20;;;4.70;;
6517;SDS011;3292;48.944;9.240;2022-08-03T05:07:54;6.17;;;4.30;;
6517;SDS011;3292;48.944;9.240;2022-08-03T05:10:22;7.27;;;4.67;;
6517;SDS011;3292;48.944;9.240;2022-08-03T05:12:49;6.00;;;5.40;;
6517;SDS011;3292;48.944;9.240;2022-08-03T05:15:25;5.80;;;5.20;;
6517;SDS011;3292;48.944;9.240;2022-08-03T05:17:53;5.77;;;4.97;;
6517;SDS011;3292;48.944;9.240;2022-08-03T05:20:20;5.03;;;4.63;;
6517;SDS011;3292;48.944;9.240;2022-08-03T05:22:47;7.17;;;4.67;;
6517;SDS011;3292;48.944;9.240;2022-08-03T05:25:15;7.47;;;4.57;;
6517;SDS011;3292;48.944;9.240;2022-08-03T05:27:43;4.60;;;4.20;;
6517;SDS011;3292;48.944;9.240;2022-08-03T05:30:10;4.83;;;4.10;;
6517;SDS011;3292;48.944;9.240;2022-08-03T05:32:39;4.00;;;3.60;;
6517;SDS011;3292;48.944;9.240;2022-08-03T05:35:09;5.00;;;4.17;;
6517;SDS011;3292;48.944;9.240;2022-08-03T05:37:36;4.60;;;4.17;;
6517;SDS011;3292;48.944;9.240;2022-08-03T05:40:04;4.27;;;3.97;;
6517;SDS011;3292;48.944;9.240;2022-08-03T05:42:32;4.27;;;3.93;;
6517;SDS011;3292;48.944;9.240;2022-08-03T05:45:02;4.73;;;3.57;;
6517;SDS011;3292;48.944;9.240;2022-08-03T05:47:40;4.60;;;4.03;;
6517;SDS011;3292;48.944;9.240;2022-08-03T05:50:10;4.30;;;3.90;;
6517;SDS011;3292;48.944;9.240;2022-08-03T05:52:39;3.53;;;3.23;;
6517;SDS011;3292;48.944;9.240;2022-08-03T05:55:10;4.77;;;3.40;;
6517;SDS011;3292;48.944;9.240;2022-08-03T05:57:39;3.50;;;3.20;;
6517;SDS011;3292;48.944;9.240;2022-08-03T06:00:09;3.40;;;3.05;;
6517;SDS011;3292;48.944;9.240;2022-08-03T06:02:40;3.33;;;2.97;;
6517;SDS011;3292;48.944;9.240;2022-08-03T06:05:12;3.80;;;3.20;;
6517;SDS011;3292;48.944;9.240;2022-08-03T06:07:45;5.00;;;3.00;;
6517;SDS011;3292;48.944;9.240;2022-08-03T06:10:17;2.90;;;2.65;;
6517;SDS011;3292;48.944;9.240;2022-08-03T06:12:45;4.78;;;2.90;;
6517;SDS011;3292;48.944;9.240;2022-08-03T06:15:18;2.53;;;2.33;;
6517;SDS011;3292;48.944;9.240;2022-08-03T06:17:48;4.97;;;2.75;;
6517;SDS011;3292;48.944;9.240;2022-08-03T06:20:17;3.20;;;2.97;;
6517;SDS011;3292;48.944;9.240;2022-08-03T06:22:45;3.78;;;2.83;;
6517;SDS011;3292;48.944;9.240;2022-08-03T06:25:16;5.05;;;2.60;;
6517;SDS011;3292;48.944;9.240;2022-08-03T06:27:51;5.90;;;3.00;;
6517;SDS011;3292;48.944;9.240;2022-08-03T06:30:19;3.20;;;2.80;;
6517;SDS011;3292;48.944;9.240;2022-08-03T06:32:48;3.00;;;2.47;;
6517;SDS011;3292;48.944;9.240;2022-08-03T06:35:19;4.38;;;2.90;;
6517;SDS011;3292;48.944;9.240;2022-08-03T06:37:52;3.88;;;3.00;;
6517;SDS011;3292;48.944;9.240;2022-08-03T06:40:22;3.85;;;2.67;;
6517;SDS011;3292;48.944;9.240;2022-08-03T06:42:55;3.08;;;2.75;;
6517;SDS011;3292;48.944;9.240;2022-08-03T06:45:23;3.17;;;2.75;;
6517;SDS011;3292;48.944;9.240;2022-08-03T06:48:00;4.70;;;3.00;;
6517;SDS011;3292;48.944;9.240;2022-08-03T06:50:29;4.00;;;2.90;;
6517;SDS011;3292;48.944;9.240;2022-08-03T06:52:57;4.25;;;2.78;;
6517;SDS011;3292;48.944;9.240;2022-08-03T06:55:24;3.28;;;2.95;;
6517;SDS011;3292;48.944;9.240;2022-08-03T06:57:52;2.70;;;2.50;;
6517;SDS011;3292;48.944;9.240;2022-08-03T07:00:22;4.32;;;2.70;;
6517;SDS011;3292;48.944;9.240;2022-08-03T07:02:52;3.80;;;3.03;;
6517;SDS011;3292;48.944;9.240;2022-08-03T07:05:24;3.97;;;2.58;;
6517;SDS011;3292;48.944;9.240;2022-08-03T07:07:55;2.60;;;2.40;;
6517;SDS011;3292;48.944;9.240;2022-08-03T07:10:23;3.08;;;2.53;;
6517;SDS011;3292;48.944;9.240;2022-08-03T07:12:56;2.90;;;2.47;;
6517;SDS011;3292;48.944;9.240;2022-08-03T07:15:25;2.85;;;2.58;;
6517;SDS011;3292;48.944;9.240;2022-08-03T07:17:52;3.53;;;2.85;;
6517;SDS011;3292;48.944;9.240;2022-08-03T07:20:19;4.80;;;3.40;;
6517;SDS011;3292;48.944;9.240;2022-08-03T07:22:48;3.00;;;2.70;;
6517;SDS011;3292;48.944;9.240;2022-08-03T07:25:15;4.57;;;2.58;;
6517;SDS011;3292;48.944;9.240;2022-08-03T07:27:43;5.82;;;2.80;;
6517;SDS011;3292;48.944;9.240;2022-08-03T07:30:11;4.07;;;3.35;;
6517;SDS011;3292;48.944;9.240;2022-08-03T07:32:38;3.17;;;2.30;;
6517;SDS011;3292;48.944;9.240;2022-08-03T07:35:06;2.80;;;2.50;;
6517;SDS011;3292;48.944;9.240;2022-08-03T07:37:35;3.10;;;2.22;;
6517;SDS011;3292;48.944;9.240;2022-08-03T07:40:08;3.47;;;2.45;;
6517;SDS011;3292;48.944;9.240;2022-08-03T07:42:36;2.58;;;2.38;;
6517;SDS011;3292;48.944;9.240;2022-08-03T07:45:05;3.13;;;2.55;;
6517;SDS011;3292;48.944;9.240;2022-08-03T07:47:36;2.50;;;2.30;;
6517;SDS011;3292;48.944;9.240;2022-08-03T07:50:09;2.95;;;2.75;;
6517;SDS011;3292;48.944;9.240;2022-08-03T07:52:51;4.03;;;2.70;;
6517;SDS011;3292;48.944;9.240;2022-08-03T07:55:22;2.67;;;2.47;;
6517;SDS011;3292;48.944;9.240;2022-08-03T07:58:00;3.22;;;2.20;;
6517;SDS011;3292;48.944;9.240;2022-08-03T08:00:31;3.20;;;2.15;;
6517;SDS011;3292;48.944;9.240;2022-08-03T08:02:59;5.25;;;2.70;;
6517;SDS011;3292;48.944;9.240;2022-08-03T08:05:31;3.97;;;2.42;;
6517;SDS011;3292;48.944;9.240;2022-08-03T08:07:59;6.82;;;2.80;;
6517;SDS011;3292;48.944;9.240;2022-08-03T08:10:29;3.30;;;2.45;;
6517;SDS011;3292;48.944;9.240;2022-08-03T08:12:58;3.67;;;2.10;;
6517;SDS011;3292;48.944;9.240;2022-08-03T08:15:29;4.80;;;2.28;;
6517;SDS011;3292;48.944;9.240;2022-08-03T08:17:59;4.95;;;2.38;;
6517;SDS011;3292;48.944;9.240;2022-08-03T08:20:35;3.75;;;2.30;;
6517;SDS011;3292;48.944;9.240;2022-08-03T08:23:12;2.35;;;2.10;;
6517;SDS011;3292;48.944;9.240;2022-08-03T08:25:48;2.75;;;2.10;;
6517;SDS011;3292;48.944;9.240;2022-08-03T08:28:16;4.18;;;2.33;;
6517;SDS011;3292;48.944;9.240;2022-08-03T08:30:43;2.92;;;2.10;;
6517;SDS011;3292;48.944;9.240;2022-08-03T08:33:10;5.78;;;2.28;;
6517;SDS011;3292;48.944;9.240;2022-08-03T08:35:37;2.72;;;2.10;;
6517;SDS011;3292;48.944;9.240;2022-08-03T08:38:04;5.18;;;1.80;;
6517;SDS011;3292;48.944;9.240;2022-08-03T08:40:30;2.70;;;1.73;;
6517;SDS011;3292;48.944;9.240;2022-08-03T08:42:59;3.95;;;2.00;;
6517;SDS011;3292;48.944;9.240;2022-08-03T08:45:27;3.35;;;1.90;;
6517;SDS011;3292;48.944;9.240;2022-08-03T08:47:55;2.83;;;1.80;;
6517;SDS011;3292;48.944;9.240;2022-08-03T08:50:24;2.58;;;1.92;;
6517;SDS011;3292;48.944;9.240;2022-08-03T08:52:51;3.55;;;1.98;;
6517;SDS011;3292;48.944;9.240;2022-08-03T08:55:20;2.35;;;1.73;;
6517;SDS011;3292;48.944;9.240;2022-08-03T08:57:49;3.13;;;2.10;;
6517;SDS011;3292;48.944;9.240;2022-08-03T09:00:19;3.30;;;2.00;;
6517;SDS011;3292;48.944;9.240;2022-08-03T09:02:46;1.90;;;1.58;;
6517;SDS011;3292;48.944;9.240;2022-08-03T09:05:13;2.42;;;1.60;;
6517;SDS011;3292;48.944;9.240;2022-08-03T09:07:42;2.22;;;1.80;;
6517;SDS011;3292;48.944;9.240;2022-08-03T09:10:11;2.95;;;1.60;;
6517;SDS011;3292;48.944;9.240;2022-08-03T09:12:40;2.25;;;1.65;;
6517;SDS011;3292;48.944;9.240;2022-08-03T09:15:15;1.92;;;1.83;;
6517;SDS011;3292;48.944;9.240;2022-08-03T09:17:44;3.45;;;1.75;;
6517;SDS011;3292;48.944;9.240;2022-08-03T09:20:12;2.55;;;1.50;;
6517;SDS011;3292;48.944;9.240;2022-08-03T09:22:50;4.00;;;1.92;;
6517;SDS011;3292;48.944;9.240;2022-08-03T09:25:18;2.83;;;1.70;;
6517;SDS011;3292;48.944;9.240;2022-08-03T09:27:45;2.60;;;1.73;;
6517;SDS011;3292;48.944;9.240;2022-08-03T09:30:12;2.17;;;1.85;;
6517;SDS011;3292;48.944;9.240;2022-08-03T09:32:41;2.00;;;1.80;;
6517;SDS011;3292;48.944;9.240;2022-08-03T09:35:12;2.33;;;1.63;;
6517;SDS011;3292;48.944;9.240;2022-08-03T09:37:39;2.22;;;1.70;;
6517;SDS011;3292;48.944;9.240;2022-08-03T09:40:07;1.67;;;1.58;;
6517;SDS011;3292;48.944;9.240;2022-08-03T09:42:34;2.85;;;1.65;;
6517;SDS011;3292;48.944;9.240;2022-08-03T09:45:02;1.77;;;1.60;;
6517;SDS011;3292;48.944;9.240;2022-08-03T09:47:31;2.13;;;1.60;;
6517;SDS011;3292;48.944;9.240;2022-08-03T09:50:00;2.22;;;1.80;;
6517;SDS011;3292;48.944;9.240;2022-08-03T09:52:34;1.60;;;1.50;;
6517;SDS011;3292;48.944;9.240;2022-08-03T09:55:06;2.65;;;1.52;;
6517;SDS011;3292;48.944;9.240;2022-08-03T09:57:35;2.78;;;1.73;;
6517;SDS011;3292;48.944;9.240;2022-08-03T10:00:11;1.80;;;1.60;;
6517;SDS011;3292;48.944;9.240;2022-08-03T10:02:40;2.13;;;1.60;;
6517;SDS011;3292;48.944;9.240;2022-08-03T10:05:15;2.50;;;1.60;;
6517;SDS011;3292;48.944;9.240;2022-08-03T10:08:09;1.40;;;1.30;;
6517;SDS011;3292;48.944;9.240;2022-08-03T10:10:51;1.70;;;1.45;;
6517;SDS011;3292;48.944;9.240;2022-08-03T10:13:28;2.03;;;1.70;;
6517;SDS011;3292;48.944;9.240;2022-08-03T10:15:56;2.00;;;1.55;;
6517;SDS011;3292;48.944;9.240;2022-08-03T10:18:35;1.60;;;1.50;;
6517;SDS011;3292;48.944;9.240;2022-08-03T10:21:11;3.05;;;1.65;;
6517;SDS011;3292;48.944;9.240;2022-08-03T10:23:49;1.88;;;1.60;;
6517;SDS011;3292;48.944;9.240;2022-08-03T10:26:21;2.75;;;1.70;;
6517;SDS011;3292;48.944;9.240;2022-08-03T10:28:52;1.67;;;1.52;;
6517;SDS011;3292;48.944;9.240;2022-08-03T10:31:21;2.28;;;1.70;;
6517;SDS011;3292;48.944;9.240;2022-08-03T10:33:56;1.95;;;1.67;;
6517;SDS011;3292;48.944;9.240;2022-08-03T10:36:26;2.63;;;1.63;;
6517;SDS011;3292;48.944;9.240;2022-08-03T10:39:00;1.80;;;1.70;;
6517;SDS011;3292;48.944;9.240;2022-08-03T10:41:30;1.70;;;1.60;;
6517;SDS011;3292;48.944;9.240;2022-08-03T10:44:12;2.08;;;1.55;;
6517;SDS011;3292;48.944;9.240;2022-08-03T10:46:45;2.00;;;1.85;;
6517;SDS011;3292;48.944;9.240;2022-08-03T10:49:15;2.35;;;1.85;;
6517;SDS011;3292;48.944;9.240;2022-08-03T10:51:49;1.90;;;1.80;;
6517;SDS011;3292;48.944;9.240;2022-08-03T11:00:21;2.25;;;1.70;;
6517;SDS011;3292;48.944;9.240;2022-08-03T11:03:02;3.15;;;2.03;;
6517;SDS011;3292;48.944;9.240;2022-08-03T11:05:39;1.85;;;1.65;;
6517;SDS011;3292;48.944;9.240;2022-08-03T11:08:16;1.73;;;1.58;;
6517;SDS011;3292;48.944;9.240;2022-08-03T11:10:47;2.88;;;1.80;;
6517;SDS011;3292;48.944;9.240;2022-08-03T11:13:14;1.70;;;1.60;;
6517;SDS011;3292;48.944;9.240;2022-08-03T11:15:46;2.08;;;1.90;;
6517;SDS011;3292;48.944;9.240;2022-08-03T11:18:16;3.92;;;1.90;;
6517;SDS011;3292;48.944;9.240;2022-08-03T11:20:44;1.90;;;1.80;;
6517;SDS011;3292;48.944;9.240;2022-08-03T11:23:19;2.65;;;1.90;;
6517;SDS011;3292;48.944;9.240;2022-08-03T11:26:15;2.15;;;1.80;;
6517;SDS011;3292;48.944;9.240;2022-08-03T11:28:44;2.42;;;1.88;;
6517;SDS011;3292;48.944;9.240;2022-08-03T11:34:15;2.65;;;1.80;;
6517;SDS011;3292;48.944;9.240;2022-08-03T11:39:45;1.90;;;1.67;;
6517;SDS011;3292;48.944;9.240;2022-08-03T11:45:12;2.65;;;1.90;;
6517;SDS011;3292;48.944;9.240;2022-08-03T11:47:39;2.05;;;1.70;;
6517;SDS011;3292;48.944;9.240;2022-08-03T11:50:08;4.22;;;1.90;;
6517;SDS011;3292;48.944;9.240;2022-08-03T11:52:37;4.03;;;1.70;;
6517;SDS011;3292;48.944;9.240;2022-08-03T11:55:12;2.08;;;1.88;;
6517;SDS011;3292;48.944;9.240;2022-08-03T11:57:42;1.60;;;1.50;;
6517;SDS011;3292;48.944;9.240;2022-08-03T12:00:24;2.47;;;1.55;;
6517;SDS011;3292;48.944;9.240;2022-08-03T12:02:57;2.90;;;1.65;;
6517;SDS011;3292;48.944;9.240;2022-08-03T12:05:33;1.73;;;1.63;;
6517;SDS011;3292;48.944;9.240;2022-08-03T12:08:04;1.75;;;1.65;;
6517;SDS011;3292;48.944;9.240;2022-08-03T12:10:32;1.60;;;1.50;;
6517;SDS011;3292;48.944;9.240;2022-08-03T12:13:01;2.15;;;1.80;;
6517;SDS011;3292;48.944;9.240;2022-08-03T12:15:31;1.65;;;1.55;;
6517;SDS011;3292;48.944;9.240;2022-08-03T12:17:59;1.60;;;1.50;;
6517;SDS011;3292;48.944;9.240;2022-08-03T12:20:27;1.80;;;1.70;;
6517;SDS011;3292;48.944;9.240;2022-08-03T12:23:00;3.72;;;1.80;;
6517;SDS011;3292;48.944;9.240;2022-08-03T12:25:28;1.52;;;1.30;;
6517;SDS011;3292;48.944;9.240;2022-08-03T12:28:06;2.22;;;1.80;;
6517;SDS011;3292;48.944;9.240;2022-08-03T12:30:35;2.38;;;1.63;;
6517;SDS011;3292;48.944;9.240;2022-08-03T12:33:12;3.50;;;1.50;;
6517;SDS011;3292;48.944;9.240;2022-08-03T12:35:41;2.20;;;1.77;;
6517;SDS011;3292;48.944;9.240;2022-08-03T12:38:09;1.70;;;1.60;;
6517;SDS011;3292;48.944;9.240;2022-08-03T12:40:36;2.17;;;1.83;;
6517;SDS011;3292;48.944;9.240;2022-08-03T12:43:11;3.40;;;1.80;;
6517;SDS011;3292;48.944;9.240;2022-08-03T12:45:40;2.05;;;1.60;;
6517;SDS011;3292;48.944;9.240;2022-08-03T12:48:08;1.83;;;1.70;;
6517;SDS011;3292;48.944;9.240;2022-08-03T12:50:37;1.50;;;1.40;;
6517;SDS011;3292;48.944;9.240;2022-08-03T12:53:06;2.67;;;1.88;;
6517;SDS011;3292;48.944;9.240;2022-08-03T12:55:34;2.13;;;1.70;;
6517;SDS011;3292;48.944;9.240;2022-08-03T12:58:02;1.98;;;1.77;;
6517;SDS011;3292;48.944;9.240;2022-08-03T13:00:31;4.03;;;1.92;;
6517;SDS011;3292;48.944;9.240;2022-08-03T13:03:01;1.75;;;1.65;;
6517;SDS011;3292;48.944;9.240;2022-08-03T13:05:30;2.70;;;1.75;;
6517;SDS011;3292;48.944;9.240;2022-08-03T13:07:57;3.15;;;1.73;;
6517;SDS011;3292;48.944;9.240;2022-08-03T13:10:28;2.42;;;1.73;;
6517;SDS011;3292;48.944;9.240;2022-08-03T13:12:56;1.75;;;1.65;;
6517;SDS011;3292;48.944;9.240;2022-08-03T13:15:24;2.53;;;1.65;;
6517;SDS011;3292;48.944;9.240;2022-08-03T13:17:55;1.83;;;1.70;;
6517;SDS011;3292;48.944;9.240;2022-08-03T13:20:36;1.83;;;1.73;;
6517;SDS011;3292;48.944;9.240;2022-08-03T13:23:06;2.10;;;1.90;;
6517;SDS011;3292;48.944;9.240;2022-08-03T13:25:33;2.10;;;2.00;;
6517;SDS011;3292;48.944;9.240;2022-08-03T13:28:02;2.15;;;1.80;;
6517;SDS011;3292;48.944;9.240;2022-08-03T13:30:32;3.72;;;1.80;;
6517;SDS011;3292;48.944;9.240;2022-08-03T13:33:14;1.70;;;1.58;;
6517;SDS011;3292;48.944;9.240;2022-08-03T13:35:51;3.58;;;1.95;;
6517;SDS011;3292;48.944;9.240;2022-08-03T13:38:36;1.80;;;1.52;;
6517;SDS011;3292;48.944;9.240;2022-08-03T13:41:09;2.13;;;1.83;;
6517;SDS011;3292;48.944;9.240;2022-08-03T13:43:42;1.73;;;1.63;;
6517;SDS011;3292;48.944;9.240;2022-08-03T13:46:12;2.05;;;1.80;;
6517;SDS011;3292;48.944;9.240;2022-08-03T13:48:53;2.13;;;1.80;;
6517;SDS011;3292;48.944;9.240;2022-08-03T13:51:21;2.55;;;1.60;;
6517;SDS011;3292;48.944;9.240;2022-08-03T13:53:48;4.50;;;1.65;;
6517;SDS011;3292;48.944;9.240;2022-08-03T13:56:19;2.72;;;1.70;;
6517;SDS011;3292;48.944;9.240;2022-08-03T13:58:49;2.10;;;1.88;;
6517;SDS011;3292;48.944;9.240;2022-08-03T14:01:20;1.80;;;1.70;;
6517;SDS011;3292;48.944;9.240;2022-08-03T14:03:48;1.83;;;1.73;;
6517;SDS011;3292;48.944;9.240;2022-08-03T14:06:18;3.13;;;1.65;;
6517;SDS011;3292;48.944;9.240;2022-08-03T14:09:03;1.75;;;1.60;;
6517;SDS011;3292;48.944;9.240;2022-08-03T14:11:29;2.75;;;1.80;;
6517;SDS011;3292;48.944;9.240;2022-08-03T14:13:56;2.08;;;1.80;;
6517;SDS011;3292;48.944;9.240;2022-08-03T14:16:37;2.00;;;1.77;;
6517;SDS011;3292;48.944;9.240;2022-08-03T14:19:09;2.47;;;1.92;;
6517;SDS011;3292;48.944;9.240;2022-08-03T14:21:48;2.20;;;1.88;;
6517;SDS011;3292;48.944;9.240;2022-08-03T14:24:25;1.92;;;1.80;;
6517;SDS011;3292;48.944;9.240;2022-08-03T14:26:53;1.80;;;1.70;;
6517;SDS011;3292;48.944;9.240;2022-08-03T14:29:22;2.10;;;1.80;;
6517;SDS011;3292;48.944;9.240;2022-08-03T14:31:52;2.65;;;1.80;;
6517;SDS011;3292;48.944;9.240;2022-08-03T14:34:33;2.72;;;1.70;;
6517;SDS011;3292;48.944;9.240;2022-08-03T14:37:13;2.30;;;1.75;;
6517;SDS011;3292;48.944;9.240;2022-08-03T14:39:44;2.47;;;1.60;;
6517;SDS011;3292;48.944;9.240;2022-08-03T14:42:12;2.95;;;1.70;;
6517;SDS011;3292;48.944;9.240;2022-08-03T14:44:39;3.92;;;1.75;;
6517;SDS011;3292;48.944;9.240;2022-08-03T14:47:06;1.65;;;1.55;;
6517;SDS011;3292;48.944;9.240;2022-08-03T14:49:34;1.60;;;1.50;;
6517;SDS011;3292;48.944;9.240;2022-08-03T14:52:02;1.75;;;1.40;;
6517;SDS011;3292;48.944;9.240;2022-08-03T14:54:29;3.13;;;1.75;;
6517;SDS011;3292;48.944;9.240;2022-08-03T14:57:10;1.95;;;1.80;;
6517;SDS011;3292;48.944;9.240;2022-08-03T14:59:42;1.60;;;1.50;;
6517;SDS011;3292;48.944;9.240;2022-08-03T15:02:09;2.72;;;1.67;;
6517;SDS011;3292;48.944;9.240;2022-08-03T15:04:44;2.10;;;1.52;;
6517;SDS011;3292;48.944;9.240;2022-08-03T15:07:15;1.55;;;1.45;;
6517;SDS011;3292;48.944;9.240;2022-08-03T15:09:43;1.60;;;1.50;;
6517;SDS011;3292;48.944;9.240;2022-08-03T15:12:13;2.30;;;1.80;;
6517;SDS011;3292;48.944;9.240;2022-08-03T15:14:46;1.75;;;1.58;;
6517;SDS011;3292;48.944;9.240;2022-08-03T15:17:16;1.85;;;1.73;;
6517;SDS011;3292;48.944;9.240;2022-08-03T15:19:46;1.67;;;1.58;;
6517;SDS011;3292;48.944;9.240;2022-08-03T15:22:14;2.40;;;1.50;;
6517;SDS011;3292;48.944;9.240;2022-08-03T15:24:41;3.22;;;1.70;;
6517;SDS011;3292;48.944;9.240;2022-08-03T15:27:11;1.92;;;1.70;;
6517;SDS011;3292;48.944;9.240;2022-08-03T15:29:48;4.85;;;1.67;;
6517;SDS011;3292;48.944;9.240;2022-08-03T15:32:15;1.40;;;1.30;;
6517;SDS011;3292;48.944;9.240;2022-08-03T15:34:54;2.35;;;1.65;;
6517;SDS011;3292;48.944;9.240;2022-08-03T15:37:22;2.30;;;1.60;;
6517;SDS011;3292;48.944;9.240;2022-08-03T15:39:49;2.00;;;1.50;;
6517;SDS011;3292;48.944;9.240;2022-08-03T15:42:16;3.13;;;2.10;;
6517;SDS011;3292;48.944;9.240;2022-08-03T15:44:44;1.95;;;1.83;;
6517;SDS011;3292;48.944;9.240;2022-08-03T15:47:15;1.65;;;1.50;;
6517;SDS011;3292;48.944;9.240;2022-08-03T15:49:42;1.83;;;1.70;;
6517;SDS011;3292;48.944;9.240;2022-08-03T15:52:16;4.05;;;1.80;;
6517;SDS011;3292;48.944;9.240;2022-08-03T15:54:44;2.05;;;1.85;;